Licenciado y General Ignacio Lopez Rayon Airport
MMPN : now visible

Airfield :











YOU CAN JOIN US ON...

 
LOGIN :

Register | Disclaimer

   EN    FR    IT 

 









Legend :    VFR   Marginal VFR   IFR   Intensive IFR   Very Intensive IFR
Visi :
Ceiling :
>= 8 km
>= 3000ft
5 to 8 km
1000 to 3000 ft
1500m to 5 km
500 to 1000 ft
800 to 1500m
200 to 500 ft
< 800m
< 200 ft
Symbols :   Thunderstorms  Fog  Heavy snow  Heavy precipitations  Wind > 20 kt






- Airport Elevation : 5258 ft
- IATA code : UPN


MMPN - Licenciado y General Ignacio Lopez Rayon

METAR N/A
TAF TAF MMPN
Valid from the 05 at 06:00 until the 06 at 06:00 UTC


050446Z 0506/0606 00000KT 5SM HZ SCT025 BKN090 OVC200
FM051200 00000KT 3SM HZ BKN020 BKN080
TEMPO 0512/0514 2SM BR
FM051600 12005KT P6SM SCT040 BKN100
FM052200 22010KT P6SM BKN040 BKN090
TEMPO 0522/0601 5SM TSRA BKN030CB
MMFR FIR / North America



MET'MAP, your aeronautical weather chart ! - Copyright ORBIFLY December 2007 - Disclaimer

ORBIFLY MET'MAP TEAM :

Programming & Development : Alexandra Zaïnal
Original concept : Baudouin d'Aumeries
Technical & hardware support : Manuel Goepfert
Assistance : Marc-Olivier Méhu




SOURCES & CREDITS :

   NOAA       Earth
Advisory